sensor_id;sensor_type;location;lat;lon;timestamp;temperature;humidity
38514;DHT22;24282;48.400;10.808;2023-04-06T00:02:08;1.30;66.00
38514;DHT22;24282;48.400;10.808;2023-04-06T00:04:33;1.20;65.80
38514;DHT22;24282;48.400;10.808;2023-04-06T00:06:59;1.20;66.00
38514;DHT22;24282;48.400;10.808;2023-04-06T00:09:25;1.20;66.20
38514;DHT22;24282;48.400;10.808;2023-04-06T00:11:51;1.20;66.30
38514;DHT22;24282;48.400;10.808;2023-04-06T00:14:17;1.20;66.50
38514;DHT22;24282;48.400;10.808;2023-04-06T00:16:43;1.20;66.60
38514;DHT22;24282;48.400;10.808;2023-04-06T00:19:08;1.20;66.50
38514;DHT22;24282;48.400;10.808;2023-04-06T00:21:34;1.20;66.40
38514;DHT22;24282;48.400;10.808;2023-04-06T00:24:00;1.20;66.30
38514;DHT22;24282;48.400;10.808;2023-04-06T00:26:29;1.20;66.50
38514;DHT22;24282;48.400;10.808;2023-04-06T00:28:56;1.20;66.20
38514;DHT22;24282;48.400;10.808;2023-04-06T00:31:24;1.20;66.40
38514;DHT22;24282;48.400;10.808;2023-04-06T00:33:50;1.20;66.60
38514;DHT22;24282;48.400;10.808;2023-04-06T00:36:15;1.00;66.70
38514;DHT22;24282;48.400;10.808;2023-04-06T00:38:41;1.00;66.80
38514;DHT22;24282;48.400;10.808;2023-04-06T00:41:07;1.00;66.90
38514;DHT22;24282;48.400;10.808;2023-04-06T00:43:33;1.00;67.00
38514;DHT22;24282;48.400;10.808;2023-04-06T00:45:58;1.00;67.20
38514;DHT22;24282;48.400;10.808;2023-04-06T00:48:24;1.00;67.20
38514;DHT22;24282;48.400;10.808;2023-04-06T00:50:50;0.90;67.00
38514;DHT22;24282;48.400;10.808;2023-04-06T00:53:17;1.00;66.80
38514;DHT22;24282;48.400;10.808;2023-04-06T00:55:43;1.00;66.70
38514;DHT22;24282;48.400;10.808;2023-04-06T00:58:09;0.90;66.90
38514;DHT22;24282;48.400;10.808;2023-04-06T01:00:44;0.90;67.10
38514;DHT22;24282;48.400;10.808;2023-04-06T01:03:15;0.80;67.20
38514;DHT22;24282;48.400;10.808;2023-04-06T01:05:42;0.80;67.30
38514;DHT22;24282;48.400;10.808;2023-04-06T01:08:17;0.80;67.50
38514;DHT22;24282;48.400;10.808;2023-04-06T01:10:43;0.70;67.50
38514;DHT22;24282;48.400;10.808;2023-04-06T01:13:19;0.70;67.80
38514;DHT22;24282;48.400;10.808;2023-04-06T01:15:53;0.70;67.90
38514;DHT22;24282;48.400;10.808;2023-04-06T01:18:39;0.70;67.90
38514;DHT22;24282;48.400;10.808;2023-04-06T01:21:25;0.60;67.80
38514;DHT22;24282;48.400;10.808;2023-04-06T01:24:14;0.60;67.90
38514;DHT22;24282;48.400;10.808;2023-04-06T01:26:58;0.60;68.00
38514;DHT22;24282;48.400;10.808;2023-04-06T01:29:30;0.60;68.10
38514;DHT22;24282;48.400;10.808;2023-04-06T01:31:57;0.60;68.40
38514;DHT22;24282;48.400;10.808;2023-04-06T01:34:23;0.60;68.30
38514;DHT22;24282;48.400;10.808;2023-04-06T01:36:49;0.60;68.30
38514;DHT22;24282;48.400;10.808;2023-04-06T01:39:24;0.60;68.20
38514;DHT22;24282;48.400;10.808;2023-04-06T01:41:50;0.60;68.10
38514;DHT22;24282;48.400;10.808;2023-04-06T01:44:18;0.60;67.90
38514;DHT22;24282;48.400;10.808;2023-04-06T01:46:49;0.50;67.80
38514;DHT22;24282;48.400;10.808;2023-04-06T01:49:18;0.50;68.10
38514;DHT22;24282;48.400;10.808;2023-04-06T01:51:48;0.50;68.30
38514;DHT22;24282;48.400;10.808;2023-04-06T01:54:15;0.40;68.70
38514;DHT22;24282;48.400;10.808;2023-04-06T01:57:00;0.40;68.80
38514;DHT22;24282;48.400;10.808;2023-04-06T01:59:34;0.30;68.80
38514;DHT22;24282;48.400;10.808;2023-04-06T02:02:06;0.30;68.70
38514;DHT22;24282;48.400;10.808;2023-04-06T02:04:34;0.30;68.80
38514;DHT22;24282;48.400;10.808;2023-04-06T02:07:08;0.30;68.90
38514;DHT22;24282;48.400;10.808;2023-04-06T02:09:35;0.20;69.00
38514;DHT22;24282;48.400;10.808;2023-04-06T02:12:01;0.30;69.00
38514;DHT22;24282;48.400;10.808;2023-04-06T02:14:30;0.20;69.00
38514;DHT22;24282;48.400;10.808;2023-04-06T02:16:58;0.20;69.00
38514;DHT22;24282;48.400;10.808;2023-04-06T02:19:24;0.20;68.90
38514;DHT22;24282;48.400;10.808;2023-04-06T02:21:50;0.20;68.80
38514;DHT22;24282;48.400;10.808;2023-04-06T02:24:16;0.20;69.10
38514;DHT22;24282;48.400;10.808;2023-04-06T02:26:41;0.20;69.30
38514;DHT22;24282;48.400;10.808;2023-04-06T02:29:08;0.20;69.30
38514;DHT22;24282;48.400;10.808;2023-04-06T02:31:35;0.20;69.20
38514;DHT22;24282;48.400;10.808;2023-04-06T02:34:02;0.20;69.10
38514;DHT22;24282;48.400;10.808;2023-04-06T02:36:30;0.10;69.00
38514;DHT22;24282;48.400;10.808;2023-04-06T02:38:55;0.10;68.80
38514;DHT22;24282;48.400;10.808;2023-04-06T02:41:22;0.10;68.70
38514;DHT22;24282;48.400;10.808;2023-04-06T02:43:51;0.10;68.90
38514;DHT22;24282;48.400;10.808;2023-04-06T02:46:27;0.00;69.20
38514;DHT22;24282;48.400;10.808;2023-04-06T02:48:53;0.00;69.20
38514;DHT22;24282;48.400;10.808;2023-04-06T02:51:18;0.00;69.20
38514;DHT22;24282;48.400;10.808;2023-04-06T02:53:49;0.00;69.20
38514;DHT22;24282;48.400;10.808;2023-04-06T02:56:15;0.00;69.40
38514;DHT22;24282;48.400;10.808;2023-04-06T02:58:46;0.00;69.40
38514;DHT22;24282;48.400;10.808;2023-04-06T03:01:12;0.00;69.50
38514;DHT22;24282;48.400;10.808;2023-04-06T03:03:40;0.00;69.70
38514;DHT22;24282;48.400;10.808;2023-04-06T03:06:12;0.00;69.70
38514;DHT22;24282;48.400;10.808;2023-04-06T03:08:37;-3276.70;69.90
38514;DHT22;24282;48.400;10.808;2023-04-06T03:11:03;-3276.70;70.00
38514;DHT22;24282;48.400;10.808;2023-04-06T03:13:37;0.00;70.00
38514;DHT22;24282;48.400;10.808;2023-04-06T03:16:05;-3276.70;70.00
38514;DHT22;24282;48.400;10.808;2023-04-06T03:18:31;-3276.70;70.10
38514;DHT22;24282;48.400;10.808;2023-04-06T03:20:57;-3276.70;70.00
38514;DHT22;24282;48.400;10.808;2023-04-06T03:23:32;-3276.70;70.00
38514;DHT22;24282;48.400;10.808;2023-04-06T03:26:01;-3276.70;69.90
38514;DHT22;24282;48.400;10.808;2023-04-06T03:28:30;-3276.70;69.80
38514;DHT22;24282;48.400;10.808;2023-04-06T03:30:59;-3276.70;69.90
38514;DHT22;24282;48.400;10.808;2023-04-06T03:33:45;-3276.70;69.90
38514;DHT22;24282;48.400;10.808;2023-04-06T03:36:18;-3276.60;69.90
38514;DHT22;24282;48.400;10.808;2023-04-06T03:38:43;-3276.60;69.90
38514;DHT22;24282;48.400;10.808;2023-04-06T03:41:12;-3276.60;70.00
38514;DHT22;24282;48.400;10.808;2023-04-06T03:43:41;-3276.60;69.90
38514;DHT22;24282;48.400;10.808;2023-04-06T03:46:06;-3276.50;70.10
38514;DHT22;24282;48.400;10.808;2023-04-06T03:48:32;-3276.50;70.30
38514;DHT22;24282;48.400;10.808;2023-04-06T03:51:02;-3276.50;70.50
38514;DHT22;24282;48.400;10.808;2023-04-06T03:53:31;-3276.50;70.40
38514;DHT22;24282;48.400;10.808;2023-04-06T03:55:57;-3276.40;70.30
38514;DHT22;24282;48.400;10.808;2023-04-06T03:58:22;-3276.40;70.40
38514;DHT22;24282;48.400;10.808;2023-04-06T04:00:48;-3276.40;70.40
38514;DHT22;24282;48.400;10.808;2023-04-06T04:03:14;-3276.40;70.50
38514;DHT22;24282;48.400;10.808;2023-04-06T04:05:42;-3276.40;70.50
38514;DHT22;24282;48.400;10.808;2023-04-06T04:08:10;-3276.30;70.60
38514;DHT22;24282;48.400;10.808;2023-04-06T04:10:36;-3276.30;70.90
38514;DHT22;24282;48.400;10.808;2023-04-06T04:13:05;-3276.30;71.20
38514;DHT22;24282;48.400;10.808;2023-04-06T04:15:31;-3276.30;71.40
38514;DHT22;24282;48.400;10.808;2023-04-06T04:17:56;-3276.30;71.40
38514;DHT22;24282;48.400;10.808;2023-04-06T04:20:25;-3276.30;71.30
38514;DHT22;24282;48.400;10.808;2023-04-06T04:22:51;-3276.20;71.40
38514;DHT22;24282;48.400;10.808;2023-04-06T04:25:17;-3276.20;71.20
38514;DHT22;24282;48.400;10.808;2023-04-06T04:27:47;-3276.20;71.30
38514;DHT22;24282;48.400;10.808;2023-04-06T04:30:13;-3276.20;71.20
38514;DHT22;24282;48.400;10.808;2023-04-06T04:32:41;-3276.20;71.30
38514;DHT22;24282;48.400;10.808;2023-04-06T04:35:09;-3276.20;71.30
38514;DHT22;24282;48.400;10.808;2023-04-06T04:37:41;-3276.20;71.30
38514;DHT22;24282;48.400;10.808;2023-04-06T04:40:08;-3276.20;71.10
38514;DHT22;24282;48.400;10.808;2023-04-06T04:42:46;-3276.10;71.30
38514;DHT22;24282;48.400;10.808;2023-04-06T04:45:19;-3276.20;71.40
38514;DHT22;24282;48.400;10.808;2023-04-06T04:47:45;-3276.10;71.50
38514;DHT22;24282;48.400;10.808;2023-04-06T04:50:13;-3276.10;71.60
38514;DHT22;24282;48.400;10.808;2023-04-06T04:52:43;-3276.20;71.50
38514;DHT22;24282;48.400;10.808;2023-04-06T04:55:19;-3276.10;71.50
38514;DHT22;24282;48.400;10.808;2023-04-06T04:57:48;-3276.10;71.70
38514;DHT22;24282;48.400;10.808;2023-04-06T05:00:17;-3276.10;71.80
38514;DHT22;24282;48.400;10.808;2023-04-06T05:02:44;-3276.10;71.70
38514;DHT22;24282;48.400;10.808;2023-04-06T05:05:17;-3276.10;71.70
38514;DHT22;24282;48.400;10.808;2023-04-06T05:07:43;-3276.10;71.70
38514;DHT22;24282;48.400;10.808;2023-04-06T05:10:15;-3276.10;71.70
38514;DHT22;24282;48.400;10.808;2023-04-06T05:12:51;-3276.10;71.70
38514;DHT22;24282;48.400;10.808;2023-04-06T05:15:19;-3276.00;71.80
38514;DHT22;24282;48.400;10.808;2023-04-06T05:17:47;-3276.00;71.80
38514;DHT22;24282;48.400;10.808;2023-04-06T05:20:19;-3276.00;71.90
38514;DHT22;24282;48.400;10.808;2023-04-06T05:22:48;-3276.00;72.10
38514;DHT22;24282;48.400;10.808;2023-04-06T05:25:14;-3276.10;72.20
38514;DHT22;24282;48.400;10.808;2023-04-06T05:27:41;-3276.10;72.30
38514;DHT22;24282;48.400;10.808;2023-04-06T05:30:18;-3276.10;72.50
38514;DHT22;24282;48.400;10.808;2023-04-06T05:32:47;-3276.10;72.40
38514;DHT22;24282;48.400;10.808;2023-04-06T05:35:14;-3276.20;72.40
38514;DHT22;24282;48.400;10.808;2023-04-06T05:37:43;-3276.20;72.00
38514;DHT22;24282;48.400;10.808;2023-04-06T05:40:10;-3276.20;72.10
38514;DHT22;24282;48.400;10.808;2023-04-06T05:42:37;-3276.30;72.30
38514;DHT22;24282;48.400;10.808;2023-04-06T05:45:05;-3276.30;72.10
38514;DHT22;24282;48.400;10.808;2023-04-06T05:47:32;-3276.40;71.90
38514;DHT22;24282;48.400;10.808;2023-04-06T05:50:06;-3276.40;71.90
38514;DHT22;24282;48.400;10.808;2023-04-06T05:52:35;-3276.50;71.90
38514;DHT22;24282;48.400;10.808;2023-04-06T05:55:01;-3276.50;71.90
38514;DHT22;24282;48.400;10.808;2023-04-06T05:57:28;-3276.50;72.30
38514;DHT22;24282;48.400;10.808;2023-04-06T05:59:54;-3276.60;72.50
38514;DHT22;24282;48.400;10.808;2023-04-06T06:02:23;-3276.60;72.60
38514;DHT22;24282;48.400;10.808;2023-04-06T06:04:51;-3276.60;72.70
38514;DHT22;24282;48.400;10.808;2023-04-06T06:07:17;-3276.70;72.90
38514;DHT22;24282;48.400;10.808;2023-04-06T06:09:57;-3276.70;73.00
38514;DHT22;24282;48.400;10.808;2023-04-06T06:12:28;-3276.70;72.90
38514;DHT22;24282;48.400;10.808;2023-04-06T06:14:54;0.00;72.70
38514;DHT22;24282;48.400;10.808;2023-04-06T06:17:22;0.00;72.70
38514;DHT22;24282;48.400;10.808;2023-04-06T06:19:48;0.00;72.70
38514;DHT22;24282;48.400;10.808;2023-04-06T06:22:14;0.00;72.70
38514;DHT22;24282;48.400;10.808;2023-04-06T06:24:44;0.10;72.90
38514;DHT22;24282;48.400;10.808;2023-04-06T06:27:11;0.10;72.90
38514;DHT22;24282;48.400;10.808;2023-04-06T06:29:37;0.10;72.70
38514;DHT22;24282;48.400;10.808;2023-04-06T06:32:03;0.20;72.80
38514;DHT22;24282;48.400;10.808;2023-04-06T06:34:29;0.20;73.00
38514;DHT22;24282;48.400;10.808;2023-04-06T06:36:58;0.30;73.20
38514;DHT22;24282;48.400;10.808;2023-04-06T06:39:24;0.30;73.20
38514;DHT22;24282;48.400;10.808;2023-04-06T06:41:50;0.40;73.10
38514;DHT22;24282;48.400;10.808;2023-04-06T06:44:20;0.50;73.40
38514;DHT22;24282;48.400;10.808;2023-04-06T06:46:47;0.50;73.60
38514;DHT22;24282;48.400;10.808;2023-04-06T06:49:13;0.50;73.70
38514;DHT22;24282;48.400;10.808;2023-04-06T06:51:40;0.60;73.60
38514;DHT22;24282;48.400;10.808;2023-04-06T06:54:06;0.60;73.70
38514;DHT22;24282;48.400;10.808;2023-04-06T06:56:32;0.80;73.90
38514;DHT22;24282;48.400;10.808;2023-04-06T06:58:57;0.80;73.80
38514;DHT22;24282;48.400;10.808;2023-04-06T07:01:23;0.90;73.80
38514;DHT22;24282;48.400;10.808;2023-04-06T07:03:49;1.00;73.90
38514;DHT22;24282;48.400;10.808;2023-04-06T07:06:15;1.00;74.00
38514;DHT22;24282;48.400;10.808;2023-04-06T07:08:41;1.10;74.00
38514;DHT22;24282;48.400;10.808;2023-04-06T07:11:07;1.20;74.20
38514;DHT22;24282;48.400;10.808;2023-04-06T07:13:34;1.20;74.30
38514;DHT22;24282;48.400;10.808;2023-04-06T07:16:01;1.30;74.20
38514;DHT22;24282;48.400;10.808;2023-04-06T07:18:28;1.40;74.30
38514;DHT22;24282;48.400;10.808;2023-04-06T07:20:54;1.50;74.40
38514;DHT22;24282;48.400;10.808;2023-04-06T07:23:19;1.50;74.40
38514;DHT22;24282;48.400;10.808;2023-04-06T07:25:45;1.70;73.70
38514;DHT22;24282;48.400;10.808;2023-04-06T07:28:11;1.70;74.60
38514;DHT22;24282;48.400;10.808;2023-04-06T07:30:41;1.90;77.40
38514;DHT22;24282;48.400;10.808;2023-04-06T07:33:09;2.20;79.80
38514;DHT22;24282;48.400;10.808;2023-04-06T07:35:36;2.30;77.20
38514;DHT22;24282;48.400;10.808;2023-04-06T07:38:02;2.40;74.40
38514;DHT22;24282;48.400;10.808;2023-04-06T07:40:29;2.50;73.00
38514;DHT22;24282;48.400;10.808;2023-04-06T07:42:57;2.50;72.20
38514;DHT22;24282;48.400;10.808;2023-04-06T07:45:23;2.50;71.50
38514;DHT22;24282;48.400;10.808;2023-04-06T07:47:49;2.50;70.20
38514;DHT22;24282;48.400;10.808;2023-04-06T07:50:15;2.60;68.30
38514;DHT22;24282;48.400;10.808;2023-04-06T07:52:41;2.70;68.20
38514;DHT22;24282;48.400;10.808;2023-04-06T07:55:08;2.70;67.30
38514;DHT22;24282;48.400;10.808;2023-04-06T07:57:34;2.90;66.80
38514;DHT22;24282;48.400;10.808;2023-04-06T08:00:00;2.90;66.40
38514;DHT22;24282;48.400;10.808;2023-04-06T08:02:26;3.00;65.70
38514;DHT22;24282;48.400;10.808;2023-04-06T08:04:52;3.00;65.50
38514;DHT22;24282;48.400;10.808;2023-04-06T08:07:17;3.10;65.60
38514;DHT22;24282;48.400;10.808;2023-04-06T08:09:43;3.20;65.40
38514;DHT22;24282;48.400;10.808;2023-04-06T08:12:09;3.30;65.50
38514;DHT22;24282;48.400;10.808;2023-04-06T08:14:35;3.40;65.10
38514;DHT22;24282;48.400;10.808;2023-04-06T08:17:01;3.50;64.60
38514;DHT22;24282;48.400;10.808;2023-04-06T08:19:27;3.60;63.80
38514;DHT22;24282;48.400;10.808;2023-04-06T08:21:52;3.70;63.70
38514;DHT22;24282;48.400;10.808;2023-04-06T08:24:18;3.80;63.20
38514;DHT22;24282;48.400;10.808;2023-04-06T08:26:44;3.90;63.00
38514;DHT22;24282;48.400;10.808;2023-04-06T08:29:10;4.00;62.80
38514;DHT22;24282;48.400;10.808;2023-04-06T08:31:36;4.20;62.80
38514;DHT22;24282;48.400;10.808;2023-04-06T08:34:03;4.30;62.20
38514;DHT22;24282;48.400;10.808;2023-04-06T08:36:30;4.50;62.10
38514;DHT22;24282;48.400;10.808;2023-04-06T08:38:56;4.60;61.50
38514;DHT22;24282;48.400;10.808;2023-04-06T08:41:22;4.70;61.40
38514;DHT22;24282;48.400;10.808;2023-04-06T08:43:52;4.80;61.20
38514;DHT22;24282;48.400;10.808;2023-04-06T08:46:21;5.00;61.00
38514;DHT22;24282;48.400;10.808;2023-04-06T08:48:47;5.30;60.70
38514;DHT22;24282;48.400;10.808;2023-04-06T08:51:15;5.50;60.30
38514;DHT22;24282;48.400;10.808;2023-04-06T08:53:41;5.90;59.60
38514;DHT22;24282;48.400;10.808;2023-04-06T08:56:07;6.20;56.70
38514;DHT22;24282;48.400;10.808;2023-04-06T08:58:39;6.50;56.10
38514;DHT22;24282;48.400;10.808;2023-04-06T09:01:11;6.80;55.40
38514;DHT22;24282;48.400;10.808;2023-04-06T09:03:40;7.10;54.50
38514;DHT22;24282;48.400;10.808;2023-04-06T09:06:07;7.40;53.50
38514;DHT22;24282;48.400;10.808;2023-04-06T09:08:39;7.80;51.50
38514;DHT22;24282;48.400;10.808;2023-04-06T09:11:05;8.10;51.10
38514;DHT22;24282;48.400;10.808;2023-04-06T09:13:32;8.40;50.10
38514;DHT22;24282;48.400;10.808;2023-04-06T09:16:09;8.70;49.40
38514;DHT22;24282;48.400;10.808;2023-04-06T09:18:35;8.90;47.00
38514;DHT22;24282;48.400;10.808;2023-04-06T09:21:02;9.20;46.70
38514;DHT22;24282;48.400;10.808;2023-04-06T09:23:29;9.40;45.50
38514;DHT22;24282;48.400;10.808;2023-04-06T09:26:15;9.60;44.90
38514;DHT22;24282;48.400;10.808;2023-04-06T09:28:50;9.90;43.60
38514;DHT22;24282;48.400;10.808;2023-04-06T09:33:52;10.30;43.70
38514;DHT22;24282;48.400;10.808;2023-04-06T09:36:19;10.50;42.50
38514;DHT22;24282;48.400;10.808;2023-04-06T09:38:59;10.60;42.00
38514;DHT22;24282;48.400;10.808;2023-04-06T09:41:35;10.70;40.90
38514;DHT22;24282;48.400;10.808;2023-04-06T09:46:34;10.90;39.00
38514;DHT22;24282;48.400;10.808;2023-04-06T09:49:04;10.90;38.80
38514;DHT22;24282;48.400;10.808;2023-04-06T09:54:03;11.10;38.30
38514;DHT22;24282;48.400;10.808;2023-04-06T09:56:43;11.20;37.40
38514;DHT22;24282;48.400;10.808;2023-04-06T10:01:46;11.20;36.90
38514;DHT22;24282;48.400;10.808;2023-04-06T10:06:59;11.20;35.80
38514;DHT22;24282;48.400;10.808;2023-04-06T10:09:28;11.30;35.80
38514;DHT22;24282;48.400;10.808;2023-04-06T10:12:05;11.40;36.10
38514;DHT22;24282;48.400;10.808;2023-04-06T10:14:34;11.30;35.40
38514;DHT22;24282;48.400;10.808;2023-04-06T10:17:04;11.20;35.20
38514;DHT22;24282;48.400;10.808;2023-04-06T10:19:54;11.20;35.10
38514;DHT22;24282;48.400;10.808;2023-04-06T10:22:44;11.20;35.00
38514;DHT22;24282;48.400;10.808;2023-04-06T10:25:16;11.30;34.60
38514;DHT22;24282;48.400;10.808;2023-04-06T10:27:42;11.20;35.20
38514;DHT22;24282;48.400;10.808;2023-04-06T10:30:08;11.20;36.80
38514;DHT22;24282;48.400;10.808;2023-04-06T10:35:10;11.40;37.30
38514;DHT22;24282;48.400;10.808;2023-04-06T10:37:50;11.50;36.10
38514;DHT22;24282;48.400;10.808;2023-04-06T10:40:24;11.50;36.30
38514;DHT22;24282;48.400;10.808;2023-04-06T10:42:54;11.50;36.60
38514;DHT22;24282;48.400;10.808;2023-04-06T10:45:25;11.50;36.40
38514;DHT22;24282;48.400;10.808;2023-04-06T10:47:55;11.40;36.50
38514;DHT22;24282;48.400;10.808;2023-04-06T10:50:21;11.40;35.20
38514;DHT22;24282;48.400;10.808;2023-04-06T10:53:01;11.40;35.50
38514;DHT22;24282;48.400;10.808;2023-04-06T10:55:28;11.30;35.40
38514;DHT22;24282;48.400;10.808;2023-04-06T10:57:54;11.20;35.00
38514;DHT22;24282;48.400;10.808;2023-04-06T11:00:21;11.30;35.50
38514;DHT22;24282;48.400;10.808;2023-04-06T11:02:47;11.30;35.30
38514;DHT22;24282;48.400;10.808;2023-04-06T11:05:14;11.20;35.70
38514;DHT22;24282;48.400;10.808;2023-04-06T11:07:41;11.20;35.40
38514;DHT22;24282;48.400;10.808;2023-04-06T11:10:07;11.20;34.60
38514;DHT22;24282;48.400;10.808;2023-04-06T11:12:34;11.20;35.40
38514;DHT22;24282;48.400;10.808;2023-04-06T11:15:02;11.20;36.10
38514;DHT22;24282;48.400;10.808;2023-04-06T11:17:32;11.20;36.00
38514;DHT22;24282;48.400;10.808;2023-04-06T11:19:58;11.30;36.50
38514;DHT22;24282;48.400;10.808;2023-04-06T11:22:25;11.40;36.80
38514;DHT22;24282;48.400;10.808;2023-04-06T11:24:52;11.40;36.30
38514;DHT22;24282;48.400;10.808;2023-04-06T11:27:19;11.60;36.60
38514;DHT22;24282;48.400;10.808;2023-04-06T11:29:45;11.80;37.70
38514;DHT22;24282;48.400;10.808;2023-04-06T11:32:20;12.10;36.20
38514;DHT22;24282;48.400;10.808;2023-04-06T11:34:47;12.20;34.70
38514;DHT22;24282;48.400;10.808;2023-04-06T11:37:13;12.40;33.30
38514;DHT22;24282;48.400;10.808;2023-04-06T11:39:48;12.50;33.70
38514;DHT22;24282;48.400;10.808;2023-04-06T11:42:25;12.50;33.60
38514;DHT22;24282;48.400;10.808;2023-04-06T11:44:53;12.70;33.60
38514;DHT22;24282;48.400;10.808;2023-04-06T11:47:20;12.70;33.10
38514;DHT22;24282;48.400;10.808;2023-04-06T11:49:52;12.60;32.70
38514;DHT22;24282;48.400;10.808;2023-04-06T11:52:22;12.50;33.50
38514;DHT22;24282;48.400;10.808;2023-04-06T11:54:51;12.50;32.80
38514;DHT22;24282;48.400;10.808;2023-04-06T11:57:18;12.40;33.60
38514;DHT22;24282;48.400;10.808;2023-04-06T11:59:44;12.30;34.50
38514;DHT22;24282;48.400;10.808;2023-04-06T12:02:10;12.00;33.40
38514;DHT22;24282;48.400;10.808;2023-04-06T12:04:36;11.70;34.20
38514;DHT22;24282;48.400;10.808;2023-04-06T12:07:02;11.40;35.20
38514;DHT22;24282;48.400;10.808;2023-04-06T12:09:29;11.20;36.00
38514;DHT22;24282;48.400;10.808;2023-04-06T12:11:55;11.00;35.90
38514;DHT22;24282;48.400;10.808;2023-04-06T12:14:22;11.00;34.60
38514;DHT22;24282;48.400;10.808;2023-04-06T12:16:48;11.00;36.20
38514;DHT22;24282;48.400;10.808;2023-04-06T12:19:14;11.00;37.20
38514;DHT22;24282;48.400;10.808;2023-04-06T12:21:39;11.40;37.70
38514;DHT22;24282;48.400;10.808;2023-04-06T12:24:06;11.70;37.50
38514;DHT22;24282;48.400;10.808;2023-04-06T12:26:32;11.80;36.50
38514;DHT22;24282;48.400;10.808;2023-04-06T12:28:59;11.70;36.50
38514;DHT22;24282;48.400;10.808;2023-04-06T12:31:33;11.60;36.90
38514;DHT22;24282;48.400;10.808;2023-04-06T12:34:00;11.50;36.60
38514;DHT22;24282;48.400;10.808;2023-04-06T12:36:27;11.70;35.60
38514;DHT22;24282;48.400;10.808;2023-04-06T12:38:53;12.00;34.30
38514;DHT22;24282;48.400;10.808;2023-04-06T12:41:19;12.40;33.00
38514;DHT22;24282;48.400;10.808;2023-04-06T12:43:45;12.60;33.10
38514;DHT22;24282;48.400;10.808;2023-04-06T12:46:12;12.90;33.20
38514;DHT22;24282;48.400;10.808;2023-04-06T12:48:38;13.30;31.60
38514;DHT22;24282;48.400;10.808;2023-04-06T12:51:05;13.60;31.60
38514;DHT22;24282;48.400;10.808;2023-04-06T12:53:32;13.80;31.40
38514;DHT22;24282;48.400;10.808;2023-04-06T12:55:58;14.00;31.90
38514;DHT22;24282;48.400;10.808;2023-04-06T12:58:25;14.10;30.10
38514;DHT22;24282;48.400;10.808;2023-04-06T13:01:06;14.30;30.90
38514;DHT22;24282;48.400;10.808;2023-04-06T13:03:32;14.40;30.50
38514;DHT22;24282;48.400;10.808;2023-04-06T13:06:00;14.60;30.00
38514;DHT22;24282;48.400;10.808;2023-04-06T13:08:26;14.70;28.90
38514;DHT22;24282;48.400;10.808;2023-04-06T13:10:53;14.70;27.70
38514;DHT22;24282;48.400;10.808;2023-04-06T13:13:29;14.80;28.90
38514;DHT22;24282;48.400;10.808;2023-04-06T13:15:59;14.90;28.20
38514;DHT22;24282;48.400;10.808;2023-04-06T13:18:27;14.90;29.40
38514;DHT22;24282;48.400;10.808;2023-04-06T13:20:55;15.10;29.00
38514;DHT22;24282;48.400;10.808;2023-04-06T13:23:22;15.30;29.90
38514;DHT22;24282;48.400;10.808;2023-04-06T13:25:48;15.30;27.90
38514;DHT22;24282;48.400;10.808;2023-04-06T13:28:13;15.40;28.80
38514;DHT22;24282;48.400;10.808;2023-04-06T13:30:40;15.20;27.40
38514;DHT22;24282;48.400;10.808;2023-04-06T13:33:07;14.60;28.80
38514;DHT22;24282;48.400;10.808;2023-04-06T13:35:33;14.50;29.10
38514;DHT22;24282;48.400;10.808;2023-04-06T13:37:58;14.40;28.90
38514;DHT22;24282;48.400;10.808;2023-04-06T13:40:25;14.40;29.80
38514;DHT22;24282;48.400;10.808;2023-04-06T13:42:50;14.50;29.80
38514;DHT22;24282;48.400;10.808;2023-04-06T13:45:16;14.50;29.80
38514;DHT22;24282;48.400;10.808;2023-04-06T13:47:42;14.30;30.00
38514;DHT22;24282;48.400;10.808;2023-04-06T13:50:08;14.20;30.90
38514;DHT22;24282;48.400;10.808;2023-04-06T13:52:35;14.30;29.40
38514;DHT22;24282;48.400;10.808;2023-04-06T13:55:01;14.50;28.90
38514;DHT22;24282;48.400;10.808;2023-04-06T13:57:28;14.50;28.30
38514;DHT22;24282;48.400;10.808;2023-04-06T13:59:55;14.70;28.40
38514;DHT22;24282;48.400;10.808;2023-04-06T14:02:21;14.60;28.50
38514;DHT22;24282;48.400;10.808;2023-04-06T14:04:53;14.50;29.10
38514;DHT22;24282;48.400;10.808;2023-04-06T14:07:20;14.60;28.70
38514;DHT22;24282;48.400;10.808;2023-04-06T14:09:47;14.60;28.90
38514;DHT22;24282;48.400;10.808;2023-04-06T14:12:12;14.60;27.70
38514;DHT22;24282;48.400;10.808;2023-04-06T14:14:38;14.60;28.00
38514;DHT22;24282;48.400;10.808;2023-04-06T14:17:04;14.80;27.80
38514;DHT22;24282;48.400;10.808;2023-04-06T14:19:29;14.90;27.40
38514;DHT22;24282;48.400;10.808;2023-04-06T14:21:55;15.00;27.60
38514;DHT22;24282;48.400;10.808;2023-04-06T14:24:21;15.20;27.60
38514;DHT22;24282;48.400;10.808;2023-04-06T14:26:48;15.20;27.50
38514;DHT22;24282;48.400;10.808;2023-04-06T14:29:13;15.30;27.30
38514;DHT22;24282;48.400;10.808;2023-04-06T14:31:39;15.30;27.60
38514;DHT22;24282;48.400;10.808;2023-04-06T14:34:05;15.40;27.70
38514;DHT22;24282;48.400;10.808;2023-04-06T14:36:32;15.50;27.70
38514;DHT22;24282;48.400;10.808;2023-04-06T14:39:05;15.60;29.10
38514;DHT22;24282;48.400;10.808;2023-04-06T14:41:32;15.60;28.20
38514;DHT22;24282;48.400;10.808;2023-04-06T14:43:58;15.60;28.50
38514;DHT22;24282;48.400;10.808;2023-04-06T14:46:23;15.60;27.40
38514;DHT22;24282;48.400;10.808;2023-04-06T14:48:50;15.60;27.30
38514;DHT22;24282;48.400;10.808;2023-04-06T14:51:16;15.50;28.40
38514;DHT22;24282;48.400;10.808;2023-04-06T14:53:42;15.40;28.90
38514;DHT22;24282;48.400;10.808;2023-04-06T14:56:08;15.50;28.80
38514;DHT22;24282;48.400;10.808;2023-04-06T14:58:34;15.60;28.50
38514;DHT22;24282;48.400;10.808;2023-04-06T15:01:01;15.70;28.30
38514;DHT22;24282;48.400;10.808;2023-04-06T15:03:28;15.80;28.60
38514;DHT22;24282;48.400;10.808;2023-04-06T15:05:57;15.90;28.40
38514;DHT22;24282;48.400;10.808;2023-04-06T15:08:24;15.90;28.30
38514;DHT22;24282;48.400;10.808;2023-04-06T15:10:50;15.90;28.40
38514;DHT22;24282;48.400;10.808;2023-04-06T15:13:17;15.90;28.60
38514;DHT22;24282;48.400;10.808;2023-04-06T15:15:43;15.90;27.60
38514;DHT22;24282;48.400;10.808;2023-04-06T15:18:10;15.80;27.20
38514;DHT22;24282;48.400;10.808;2023-04-06T15:20:36;15.40;27.00
38514;DHT22;24282;48.400;10.808;2023-04-06T15:23:02;15.20;27.40
38514;DHT22;24282;48.400;10.808;2023-04-06T15:25:29;14.90;28.00
38514;DHT22;24282;48.400;10.808;2023-04-06T15:27:55;14.70;28.40
38514;DHT22;24282;48.400;10.808;2023-04-06T15:30:21;14.70;28.60
38514;DHT22;24282;48.400;10.808;2023-04-06T15:32:58;14.80;28.60
38514;DHT22;24282;48.400;10.808;2023-04-06T15:35:27;14.90;28.90